Aviation Digital Data Service (ADDS)

Output produced by METARs form (1906 UTC 25 September 2016)
found at http://www.aviationweather.gov/adds/metars/
 
KIPT 251854Z VRB04KT 10SM CLR 20/07 A3015 RMK AO2 SLP211 T02000067
KIPT 251826Z 21003KT 10SM CLR 19/07 A3017 RMK AO2 T01940067
KIPT 251816Z 00000KT 2SM HZ CLR 20/07 A3017 RMK AO2 T02000067
KIPT 251754Z 26005KT 10SM CLR 19/07 A3018 RMK AO2 SLP220 T01940067 10200 20072 58022
KIPT 251654Z 29004KT 10SM CLR 19/07 A3020 RMK AO2 SLP228 T01940072
KIPT 251554Z 00000KT 10SM CLR 17/07 A3023 RMK AO2 SLP236 T01720067
KIPT 251454Z VRB04KT 10SM CLR 16/07 A3025 RMK AO2 SLP243 T01560067 58001
KIPT 251354Z 27007KT 10SM CLR 12/08 A3025 RMK AO2 SLP246 T01220078
KIPT 251254Z 25007KT 10SM FEW006 10/08 A3025 RMK AO2 SLP243 T01000083
KIPT 251154Z 00000KT 10SM FEW006 07/06 A3025 RMK AO2 SLP245 FEW OVR RIVER SE-SW T00720061 10094 20067 53011
KIPT 251136Z 36003KT 10SM SCT006 07/06 A3025 RMK AO2 T00670056
KIPT 251054Z 34003KT 10SM CLR 07/06 A3023 RMK AO2 SLP236 T00670056
KIPT 250954Z AUTO 00000KT 10SM CLR 07/06 A3022 RMK AO2 SLP234 T00720056
KIPT 250854Z AUTO 00000KT 10SM CLR 08/06 A3022 RMK AO2 SLP233 T00780061 53003
KIPT 250754Z AUTO 00000KT 10SM CLR 08/07 A3021 RMK AO2 SLP230 T00780067
KIPT 250654Z AUTO 00000KT 10SM CLR 09/07 A3021 RMK AO2 SLP229 T00890067
KIPT 250554Z AUTO 31003KT 10SM CLR 09/07 A3021 RMK AO2 SLP230 T00940072 10156 20094 53006
KIPT 250454Z AUTO 29004KT 10SM CLR 10/08 A3020 RMK AO2 SLP228 T01000078 402330100
KIPT 250354Z AUTO 33003KT 10SM CLR 13/07 A3020 RMK AO2 SLP224 T01280072
KIPT 250254Z AUTO 01005KT 10SM CLR 14/07 A3019 RMK AO2 SLP223 T01390072 51014
KIPT 250154Z 00000KT 10SM CLR 12/09 A3019 RMK AO2 SLP221 T01220094
KIPT 250054Z 00000KT 10SM CLR 12/09 A3017 RMK AO2 SLP216 T01220089
KIPT 242354Z 00000KT 10SM CLR 14/09 A3015 RMK AO2 SLP210 T01440089 10233 20144 53015
KIPT 242254Z 36005KT 10SM CLR 19/07 A3013 RMK AO2 SLP203 T01890067
KIPT 242154Z 34009KT 10SM CLR 21/07 A3012 RMK AO2 SLP198 T02110067
KIPT 242054Z 34007KT 10SM CLR 22/06 A3011 RMK AO2 SLP193 T02220061 55009
KIPT 241954Z 31005G16KT 10SM CLR 22/07 A3011 RMK AO2 SLP192 T02220067
KIPT 241854Z VRB05KT 10SM CLR 23/07 A3012 RMK AO2 SLP196 T02280072
KIPT 241754Z 01010KT 10SM CLR 22/07 A3013 RMK AO2 SLP202 T02170067 10217 20156 58013
KIPT 241654Z VRB05KT 10SM CLR 21/07 A3016 RMK AO2 SLP209 T02110067
KIPT 241554Z 33009KT 10SM CLR 20/07 A3017 RMK AO2 SLP213 T02000067
KIPT 241454Z 33008G15KT 10SM CLR 18/07 A3017 RMK AO2 SLP215 T01830067 50001
KIPT 241354Z VRB04KT 10SM CLR 17/08 A3018 RMK AO2 SLP218 T01720078
KIPT 241254Z 33005KT 10SM FEW045 16/08 A3018 RMK AO2 SLP218 T01610078
KIPT 241154Z 02007KT 10SM BKN043 16/08 A3017 RMK AO2 SLP213 T01560078 10178 20156 53024
KIPT 241054Z 34005KT 10SM OVC036 16/09 A3014 RMK AO2 SLP204 T01610094
KIPT 240954Z AUTO 29005KT 10SM BKN043 BKN070 OVC090 16/10 A3012 RMK AO2 SLP195 T01560100
KIPT 240854Z AUTO 32005KT 10SM OVC080 16/11 A3010 RMK AO2 SLP188 T01610106 55000
KIPT 240754Z AUTO 32005KT 10SM BKN075 OVC095 17/11 A3009 RMK AO2 SLP185 T01670106